createdAt,value
2022-09-12T00:00:23.765Z,2.10
2022-09-12T00:01:27.837Z,2.20
2022-09-12T00:02:31.058Z,1.90
2022-09-12T00:03:34.165Z,1.60
2022-09-12T00:04:37.936Z,1.95
2022-09-12T00:05:48.027Z,2.42
2022-09-12T00:06:50.871Z,1.77
2022-09-12T00:07:53.794Z,1.95
2022-09-12T00:09:11.167Z,1.88
2022-09-12T00:10:15.112Z,2.45
2022-09-12T00:11:18.120Z,2.00
2022-09-12T00:12:20.932Z,1.77
2022-09-12T00:13:23.900Z,2.60
2022-09-12T00:14:26.740Z,2.08
2022-09-12T00:15:29.640Z,2.30
2022-09-12T00:16:36.460Z,1.98
2022-09-12T00:17:40.087Z,1.85
2022-09-12T00:18:44.970Z,1.83
2022-09-12T00:19:48.114Z,2.38
2022-09-12T00:20:50.928Z,1.90
2022-09-12T00:21:54.294Z,2.28
2022-09-12T00:22:57.111Z,2.20
2022-09-12T00:24:00.298Z,2.20
2022-09-12T00:25:04.604Z,2.58
2022-09-12T00:26:08.178Z,1.80
2022-09-12T00:27:11.040Z,2.38
2022-09-12T00:28:17.230Z,1.88
2022-09-12T00:29:22.691Z,1.45
2022-09-12T00:30:25.825Z,1.52
2022-09-12T00:31:29.568Z,1.77
2022-09-12T00:32:32.677Z,1.88
2022-09-12T00:33:36.809Z,1.90
2022-09-12T00:34:39.691Z,1.60
2022-09-12T00:35:55.791Z,1.58
2022-09-12T00:36:58.630Z,1.98
2022-09-12T00:38:01.768Z,1.67
2022-09-12T00:39:05.290Z,1.80
2022-09-12T00:40:08.691Z,2.00
2022-09-12T00:41:20.415Z,2.50
2022-09-12T00:42:23.333Z,1.60
2022-09-12T00:43:50.978Z,1.70
2022-09-12T00:44:54.007Z,1.98
2022-09-12T00:46:05.616Z,2.25
2022-09-12T00:47:27.228Z,1.77
2022-09-12T00:48:50.436Z,2.08
2022-09-12T00:50:11.115Z,2.03
2022-09-12T00:51:15.136Z,1.88
2022-09-12T00:52:31.639Z,1.88
2022-09-12T00:53:34.766Z,2.00
2022-09-12T00:54:59.646Z,2.00
2022-09-12T00:56:03.233Z,2.17
2022-09-12T00:57:09.807Z,2.03
2022-09-12T00:58:31.945Z,1.85
2022-09-12T00:59:53.760Z,2.10
2022-09-12T01:00:58.750Z,1.95
2022-09-12T01:02:01.879Z,1.90
2022-09-12T01:03:11.045Z,2.17
2022-09-12T01:04:14.721Z,1.95
2022-09-12T01:05:17.905Z,1.67
2022-09-12T01:06:33.606Z,1.77
2022-09-12T01:07:40.889Z,2.30
2022-09-12T01:08:46.859Z,1.90
2022-09-12T01:09:50.126Z,2.40
2022-09-12T01:10:53.315Z,2.15
2022-09-12T01:11:57.099Z,2.05
2022-09-12T01:13:00.250Z,2.15
2022-09-12T01:14:03.297Z,2.22
2022-09-12T01:15:07.556Z,2.22
2022-09-12T01:16:10.660Z,2.30
2022-09-12T01:17:15.103Z,2.40
2022-09-12T01:18:25.079Z,2.58
2022-09-12T01:19:59.544Z,2.72
2022-09-12T01:21:48.202Z,2.03
2022-09-12T01:22:58.863Z,1.90
2022-09-12T01:24:37.189Z,2.05
2022-09-12T01:26:14.326Z,2.13
2022-09-12T01:27:29.281Z,1.98
2022-09-12T01:29:15.721Z,2.22
2022-09-12T01:30:20.466Z,2.00
2022-09-12T01:31:49.619Z,2.17
2022-09-12T01:32:58.613Z,1.85
2022-09-12T01:34:48.970Z,2.22
2022-09-12T01:36:25.934Z,2.22
2022-09-12T01:38:04.557Z,2.72
2022-09-12T01:39:24.310Z,2.40
2022-09-12T01:40:33.750Z,1.88
2022-09-12T01:42:16.882Z,2.10
2022-09-12T01:43:45.582Z,2.00
2022-09-12T01:45:09.956Z,2.22
2022-09-12T01:46:22.953Z,2.08
2022-09-12T01:47:39.782Z,1.80
2022-09-12T01:49:07.012Z,2.30
2022-09-12T01:50:27.935Z,2.42
2022-09-12T01:52:58.232Z,2.45
2022-09-12T01:54:18.247Z,2.22
2022-09-12T01:55:51.403Z,2.03
2022-09-12T01:57:00.505Z,1.90
2022-09-12T01:58:07.601Z,2.70
2022-09-12T01:59:30.738Z,3.10
2022-09-12T02:00:43.840Z,2.42
2022-09-12T02:02:13.659Z,2.65
2022-09-12T02:03:25.351Z,2.15
2022-09-12T02:04:39.424Z,2.38
2022-09-12T02:06:06.601Z,2.42
2022-09-12T02:07:20.341Z,1.98
2022-09-12T02:08:47.285Z,2.00
2022-09-12T02:09:57.411Z,2.33
2022-09-12T02:11:09.151Z,2.00
2022-09-12T02:12:18.597Z,1.83
2022-09-12T02:13:33.116Z,2.25
2022-09-12T02:14:46.403Z,1.90
2022-09-12T02:16:05.674Z,1.77
2022-09-12T02:17:22.383Z,2.25
2022-09-12T02:18:29.851Z,2.58
2022-09-12T02:19:41.586Z,2.80
2022-09-12T02:20:49.185Z,2.25
2022-09-12T02:22:02.169Z,2.60
2022-09-12T02:23:13.113Z,2.45
2022-09-12T02:24:17.431Z,2.50
2022-09-12T02:25:22.224Z,2.00
2022-09-12T02:26:42.651Z,2.13
2022-09-12T02:27:55.626Z,1.70
2022-09-12T02:28:58.719Z,1.98
2022-09-12T02:30:01.824Z,1.60
2022-09-12T02:31:21.650Z,2.33
2022-09-12T02:32:44.528Z,2.40
2022-09-12T02:34:39.933Z,2.33
2022-09-12T02:36:24.606Z,2.25
2022-09-12T02:38:00.222Z,1.80
2022-09-12T02:39:03.502Z,1.88
2022-09-12T02:40:09.036Z,2.92
2022-09-12T02:41:17.586Z,2.00
2022-09-12T02:42:21.042Z,2.20
2022-09-12T02:43:23.875Z,2.20
2022-09-12T02:44:29.084Z,2.15
2022-09-12T02:45:34.559Z,2.10
2022-09-12T02:46:48.096Z,2.42
2022-09-12T02:48:09.122Z,2.53
2022-09-12T02:49:12.014Z,2.35
2022-09-12T02:50:15.233Z,2.40
2022-09-12T02:51:23.395Z,2.35
2022-09-12T02:52:28.867Z,2.22
2022-09-12T02:53:31.987Z,2.40
2022-09-12T02:54:36.049Z,2.42
2022-09-12T02:55:41.910Z,2.67
2022-09-12T02:56:46.161Z,2.28
2022-09-12T02:57:49.131Z,2.40
2022-09-12T02:58:53.329Z,2.88
2022-09-12T03:00:00.494Z,2.58
2022-09-12T03:01:24.790Z,1.98
2022-09-12T03:03:11.740Z,2.28
2022-09-12T03:04:32.574Z,2.53
2022-09-12T03:07:03.577Z,1.75
2022-09-12T03:08:46.592Z,2.80
2022-09-12T03:10:52.031Z,2.40
2022-09-12T03:12:27.124Z,2.50
2022-09-12T03:14:09.947Z,2.55
2022-09-12T03:15:36.109Z,2.28
2022-09-12T03:16:57.211Z,2.95
2022-09-12T03:19:33.688Z,2.28
2022-09-12T03:21:08.490Z,2.22
2022-09-12T03:22:20.154Z,2.72
2022-09-12T03:23:54.239Z,2.90
2022-09-12T03:25:20.388Z,3.00
2022-09-12T03:26:55.434Z,2.05
2022-09-12T03:28:07.608Z,2.25
2022-09-12T03:29:13.058Z,2.22
2022-09-12T03:30:15.994Z,2.63
2022-09-12T03:31:20.414Z,2.50
2022-09-12T03:32:42.453Z,2.80
2022-09-12T03:33:46.466Z,2.47
2022-09-12T03:34:49.410Z,2.50
2022-09-12T03:35:53.380Z,2.47
2022-09-12T03:36:56.972Z,2.53
2022-09-12T03:37:59.791Z,2.63
2022-09-12T03:39:02.588Z,2.85
2022-09-12T03:40:07.150Z,2.88
2022-09-12T03:41:10.152Z,2.47
2022-09-12T03:42:12.960Z,2.63
2022-09-12T03:43:15.857Z,2.97
2022-09-12T03:44:19.525Z,2.88
2022-09-12T03:45:22.448Z,2.15
2022-09-12T03:46:25.381Z,2.92
2022-09-12T03:47:28.304Z,2.22
2022-09-12T03:48:31.933Z,2.53
2022-09-12T03:49:34.956Z,2.95
2022-09-12T03:50:37.952Z,3.08
2022-09-12T03:51:40.938Z,1.88
2022-09-12T03:52:44.064Z,2.38
2022-09-12T03:53:47.359Z,2.28
2022-09-12T03:54:50.350Z,2.80
2022-09-12T03:55:53.409Z,2.38
2022-09-12T03:56:56.266Z,2.60
2022-09-12T03:57:59.278Z,2.53
2022-09-12T03:59:04.863Z,2.33
2022-09-12T04:00:08.918Z,2.35
2022-09-12T04:02:23.158Z,2.35
2022-09-12T04:03:26.056Z,2.50
2022-09-12T04:04:29.115Z,2.50
2022-09-12T04:05:32.147Z,3.05
2022-09-12T04:06:35.637Z,2.90
2022-09-12T04:07:38.697Z,2.53
2022-09-12T04:08:43.388Z,2.88
2022-09-12T04:09:46.407Z,2.67
2022-09-12T04:10:49.273Z,2.25
2022-09-12T04:11:52.114Z,2.72
2022-09-12T04:12:54.980Z,2.53
2022-09-12T04:13:57.910Z,2.72
2022-09-12T04:15:00.868Z,2.42
2022-09-12T04:16:04.865Z,2.75
2022-09-12T04:17:08.573Z,2.88
2022-09-12T04:18:11.376Z,2.63
2022-09-12T04:19:14.463Z,2.25
2022-09-12T04:20:17.534Z,2.95
2022-09-12T04:21:24.303Z,2.60
2022-09-12T04:22:27.771Z,2.30
2022-09-12T04:23:30.588Z,2.60
2022-09-12T04:24:33.552Z,2.70
2022-09-12T04:25:36.440Z,2.70
2022-09-12T04:26:39.471Z,2.53
2022-09-12T04:27:42.378Z,2.25
2022-09-12T04:28:46.704Z,2.30
2022-09-12T04:29:49.704Z,2.47
2022-09-12T04:30:52.740Z,2.55
2022-09-12T04:31:55.717Z,2.65
2022-09-12T04:32:58.660Z,2.17
2022-09-12T04:34:01.913Z,3.10
2022-09-12T04:35:05.516Z,2.58
2022-09-12T04:36:17.330Z,3.20
2022-09-12T04:37:20.294Z,2.35
2022-09-12T04:38:23.283Z,2.38
2022-09-12T04:39:26.413Z,3.03
2022-09-12T04:40:32.379Z,2.47
2022-09-12T04:41:39.419Z,2.53
2022-09-12T04:42:42.787Z,2.45
2022-09-12T04:43:46.902Z,2.47
2022-09-12T04:44:49.939Z,2.92
2022-09-12T04:45:52.930Z,2.85
2022-09-12T04:46:55.972Z,2.60
2022-09-12T04:47:58.982Z,2.85
2022-09-12T04:49:02.132Z,2.70
2022-09-12T04:50:05.506Z,2.47
2022-09-12T04:51:14.322Z,2.38
2022-09-12T04:52:17.591Z,2.33
2022-09-12T04:53:20.450Z,2.47
2022-09-12T04:54:23.248Z,2.15
2022-09-12T04:55:26.442Z,2.30
2022-09-12T04:56:30.892Z,2.20
2022-09-12T04:57:33.983Z,2.40
2022-09-12T04:58:37.739Z,2.20
2022-09-12T04:59:40.734Z,2.40
2022-09-12T05:00:43.895Z,2.17
2022-09-12T05:01:47.040Z,1.98
2022-09-12T05:02:50.015Z,3.05
2022-09-12T05:03:53.242Z,2.53
2022-09-12T05:04:56.066Z,2.53
2022-09-12T05:05:59.331Z,2.15
2022-09-12T05:07:02.416Z,2.28
2022-09-12T05:08:05.383Z,2.03
2022-09-12T05:09:14.311Z,2.25
2022-09-12T05:10:18.220Z,2.53
2022-09-12T05:11:28.239Z,2.28
2022-09-12T05:12:36.245Z,2.33
2022-09-12T05:13:40.173Z,2.05
2022-09-12T05:14:43.069Z,2.65
2022-09-12T05:15:59.176Z,2.75
2022-09-12T05:17:02.924Z,3.03
2022-09-12T05:18:06.321Z,2.60
2022-09-12T05:19:11.849Z,2.38
2022-09-12T05:20:14.894Z,2.10
2022-09-12T05:21:21.236Z,2.85
2022-09-12T05:22:24.155Z,2.20
2022-09-12T05:23:28.317Z,2.45
2022-09-12T05:24:31.317Z,2.30
2022-09-12T05:25:34.106Z,2.50
2022-09-12T05:26:37.016Z,2.25
2022-09-12T05:27:40.196Z,2.67
2022-09-12T05:28:43.913Z,2.22
2022-09-12T05:29:46.976Z,2.10
2022-09-12T05:31:05.244Z,2.03
2022-09-12T05:32:09.628Z,1.73
2022-09-12T05:33:12.590Z,2.03
2022-09-12T05:34:15.391Z,1.80
2022-09-12T05:35:18.495Z,2.25
2022-09-12T05:36:39.119Z,1.95
2022-09-12T05:37:43.594Z,1.92
2022-09-12T05:38:47.655Z,2.10
2022-09-12T05:39:51.551Z,2.17
2022-09-12T05:40:55.205Z,1.80
2022-09-12T05:41:58.044Z,1.67
2022-09-12T05:43:01.057Z,1.60
2022-09-12T05:44:07.060Z,2.60
2022-09-12T05:45:10.201Z,1.52
2022-09-12T05:46:18.938Z,2.38
2022-09-12T05:47:21.919Z,1.83
2022-09-12T05:48:24.735Z,2.30
2022-09-12T05:49:27.705Z,2.13
2022-09-12T05:50:30.890Z,1.95
2022-09-12T05:51:38.186Z,2.05
2022-09-12T05:52:41.417Z,1.67
2022-09-12T05:53:44.267Z,1.60
2022-09-12T05:54:48.595Z,2.05
2022-09-12T05:56:01.382Z,1.70
2022-09-12T05:57:04.454Z,2.38
2022-09-12T05:58:07.530Z,2.22
2022-09-12T05:59:18.486Z,2.70
2022-09-12T06:00:21.605Z,2.17
2022-09-12T06:01:25.962Z,2.08
2022-09-12T06:02:29.901Z,1.80
2022-09-12T06:03:32.828Z,2.53
2022-09-12T06:04:35.675Z,2.25
2022-09-12T06:05:38.567Z,2.78
2022-09-12T06:06:47.345Z,2.53
2022-09-12T06:07:50.423Z,2.42
2022-09-12T06:08:57.417Z,2.78
2022-09-12T06:10:00.296Z,2.00
2022-09-12T06:11:05.950Z,2.35
2022-09-12T06:12:08.856Z,2.65
2022-09-12T06:13:11.704Z,2.55
2022-09-12T06:14:16.919Z,2.70
2022-09-12T06:15:19.867Z,3.33
2022-09-12T06:16:28.334Z,3.10
2022-09-12T06:17:31.331Z,2.38
2022-09-12T06:18:35.881Z,2.30
2022-09-12T06:19:38.679Z,2.42
2022-09-12T06:20:41.534Z,2.15
2022-09-12T06:21:45.434Z,2.13
2022-09-12T06:22:48.471Z,1.90
2022-09-12T06:23:53.057Z,2.47
2022-09-12T06:24:57.964Z,2.33
2022-09-12T06:26:02.054Z,2.50
2022-09-12T06:27:05.278Z,2.13
2022-09-12T06:28:08.523Z,2.50
2022-09-12T06:29:12.061Z,2.53
2022-09-12T06:30:15.001Z,2.22
2022-09-12T06:31:21.433Z,2.17
2022-09-12T06:32:24.286Z,2.28
2022-09-12T06:33:27.174Z,3.05
2022-09-12T06:34:30.466Z,2.42
2022-09-12T06:35:37.527Z,1.92
2022-09-12T06:36:44.544Z,2.60
2022-09-12T06:37:47.396Z,2.17
2022-09-12T06:38:57.157Z,2.42
2022-09-12T06:40:01.996Z,2.22
2022-09-12T06:41:07.589Z,2.15
2022-09-12T06:42:10.491Z,2.30
2022-09-12T06:43:14.054Z,1.90
2022-09-12T06:44:21.061Z,2.05
2022-09-12T06:45:24.049Z,1.50
2022-09-12T06:46:27.905Z,2.58
2022-09-12T06:47:30.684Z,2.05
2022-09-12T06:48:35.073Z,2.05
2022-09-12T06:49:39.313Z,1.95
2022-09-12T06:50:42.199Z,1.95
2022-09-12T06:51:45.380Z,2.25
2022-09-12T06:52:51.228Z,1.55
2022-09-12T06:53:57.738Z,1.88
2022-09-12T06:55:00.687Z,1.85
2022-09-12T06:56:15.515Z,2.20
2022-09-12T06:57:18.400Z,2.13
2022-09-12T06:58:21.255Z,1.95
2022-09-12T06:59:24.934Z,2.20
2022-09-12T07:00:27.850Z,2.10
2022-09-12T07:01:32.025Z,2.22
2022-09-12T07:02:34.971Z,1.88
2022-09-12T07:03:39.624Z,2.53
2022-09-12T07:04:42.460Z,1.90
2022-09-12T07:05:48.016Z,2.08
2022-09-12T07:06:50.983Z,1.65
2022-09-12T07:07:53.815Z,2.60
2022-09-12T07:08:59.446Z,2.60
2022-09-12T07:10:02.750Z,1.85
2022-09-12T07:11:20.294Z,2.17
2022-09-12T07:12:23.238Z,1.88
2022-09-12T07:13:26.618Z,2.15
2022-09-12T07:14:29.649Z,1.60
2022-09-12T07:15:34.446Z,2.22
2022-09-12T07:16:37.894Z,2.28
2022-09-12T07:17:40.786Z,1.70
2022-09-12T07:18:44.131Z,2.30
2022-09-12T07:19:47.557Z,1.90
2022-09-12T07:20:50.479Z,2.22
2022-09-12T07:21:58.028Z,1.75
2022-09-12T07:23:01.612Z,1.90
2022-09-12T07:24:04.544Z,2.08
2022-09-12T07:25:07.986Z,2.58
2022-09-12T07:26:13.268Z,2.13
2022-09-12T07:27:16.084Z,2.03
2022-09-12T07:28:18.894Z,1.85
2022-09-12T07:29:38.033Z,1.80
2022-09-12T07:30:41.027Z,2.30
2022-09-12T07:31:45.137Z,1.95
2022-09-12T07:32:51.909Z,2.30
2022-09-12T07:33:55.117Z,2.20
2022-09-12T07:34:57.973Z,1.80
2022-09-12T07:36:07.537Z,1.98
2022-09-12T07:37:10.427Z,2.30
2022-09-12T07:38:13.320Z,2.10
2022-09-12T07:39:16.567Z,2.80
2022-09-12T07:40:19.485Z,1.73
2022-09-12T07:41:26.551Z,2.38
2022-09-12T07:42:29.475Z,1.83
2022-09-12T07:43:32.529Z,2.13
2022-09-12T07:44:35.376Z,1.77
2022-09-12T07:45:41.793Z,2.35
2022-09-12T07:46:44.806Z,1.80
2022-09-12T07:47:47.690Z,1.65
2022-09-12T07:48:53.186Z,1.80
2022-09-12T07:49:56.934Z,2.50
2022-09-12T07:51:07.518Z,2.10
2022-09-12T07:52:10.248Z,2.42
2022-09-12T07:53:13.659Z,1.90
2022-09-12T07:54:17.244Z,1.30
2022-09-12T07:55:20.292Z,1.90
2022-09-12T07:56:29.482Z,2.00
2022-09-12T07:57:33.486Z,2.05
2022-09-12T07:58:38.613Z,1.85
2022-09-12T07:59:52.595Z,1.67
2022-09-12T08:01:17.599Z,1.90
2022-09-12T08:02:21.002Z,1.77
2022-09-12T08:03:23.827Z,1.92
2022-09-12T08:04:26.838Z,2.08
2022-09-12T08:05:30.038Z,1.98
2022-09-12T08:06:36.119Z,2.20
2022-09-12T08:07:39.208Z,1.52
2022-09-12T08:08:42.902Z,1.70
2022-09-12T08:09:46.394Z,2.00
2022-09-12T08:10:49.490Z,1.60
2022-09-12T08:11:52.246Z,1.80
2022-09-12T08:12:55.061Z,1.52
2022-09-12T08:13:58.636Z,2.10
2022-09-12T08:15:02.270Z,1.50
2022-09-12T08:16:13.369Z,2.05
2022-09-12T08:17:16.197Z,1.70
2022-09-12T08:18:19.014Z,1.75
2022-09-12T08:19:22.927Z,1.85
2022-09-12T08:20:28.416Z,1.80
2022-09-12T08:21:34.026Z,1.90
2022-09-12T08:22:36.928Z,1.63
2022-09-12T08:23:40.037Z,1.67
2022-09-12T08:24:43.837Z,1.33
2022-09-12T08:25:46.744Z,1.27
2022-09-12T08:26:49.556Z,1.73
2022-09-12T08:27:52.487Z,2.10
2022-09-12T08:28:55.642Z,1.88
2022-09-12T08:29:58.487Z,2.10
2022-09-12T08:31:02.466Z,2.00
2022-09-12T08:32:05.828Z,1.95
2022-09-12T08:33:08.900Z,1.65
2022-09-12T08:34:12.037Z,1.80
2022-09-12T08:35:15.209Z,1.92
2022-09-12T08:36:21.926Z,1.92
2022-09-12T08:37:24.989Z,1.63
2022-09-12T08:38:29.977Z,1.98
2022-09-12T08:39:33.439Z,1.67
2022-09-12T08:40:55.797Z,1.98
2022-09-12T08:42:03.245Z,1.50
2022-09-12T08:43:33.405Z,1.92
2022-09-12T08:44:56.408Z,1.80
2022-09-12T08:46:11.191Z,2.05
2022-09-12T08:47:17.161Z,1.80
2022-09-12T08:48:20.200Z,1.98
2022-09-12T08:49:31.152Z,2.10
2022-09-12T08:50:34.136Z,2.08
2022-09-12T08:51:38.589Z,1.90
2022-09-12T08:53:12.609Z,2.28
2022-09-12T08:54:25.100Z,1.90
2022-09-12T08:55:53.552Z,2.28
2022-09-12T08:57:04.907Z,2.33
2022-09-12T08:58:29.214Z,1.70
2022-09-12T08:59:42.854Z,1.85
2022-09-12T09:01:02.813Z,1.70
2022-09-12T09:02:43.356Z,1.33
2022-09-12T09:04:04.267Z,1.80
2022-09-12T09:07:08.073Z,2.20
2022-09-12T09:08:22.830Z,2.03
2022-09-12T09:09:59.497Z,1.95
2022-09-12T09:11:13.047Z,1.73
2022-09-12T09:12:37.893Z,1.77
2022-09-12T09:14:21.106Z,1.70
2022-09-12T09:16:04.949Z,1.75
2022-09-12T09:17:40.036Z,1.75
2022-09-12T09:18:44.472Z,2.05
2022-09-12T09:20:22.540Z,1.70
2022-09-12T09:21:38.342Z,2.17
2022-09-12T09:22:53.542Z,1.83
2022-09-12T09:24:10.203Z,1.83
2022-09-12T09:25:25.503Z,1.55
2022-09-12T09:26:49.155Z,1.80
2022-09-12T09:28:05.202Z,1.80
2022-09-12T09:29:41.241Z,1.55
2022-09-12T09:30:45.289Z,1.80
2022-09-12T09:31:55.986Z,2.20
2022-09-12T09:33:02.671Z,1.45
2022-09-12T09:34:31.633Z,1.67
2022-09-12T09:36:07.262Z,1.88
2022-09-12T09:37:20.184Z,1.98
2022-09-12T09:38:54.202Z,1.65
2022-09-12T09:40:14.585Z,2.05
2022-09-12T09:41:41.614Z,1.65
2022-09-12T09:43:27.526Z,2.05
2022-09-12T09:44:31.369Z,2.08
2022-09-12T09:45:34.294Z,2.30
2022-09-12T09:46:37.362Z,2.25
2022-09-12T09:47:40.253Z,2.00
2022-09-12T09:48:49.303Z,1.75
2022-09-12T09:49:52.381Z,2.28
2022-09-12T09:51:02.013Z,2.40
2022-09-12T09:52:08.383Z,1.88
2022-09-12T09:53:40.493Z,1.77
2022-09-12T09:54:52.111Z,1.80
2022-09-12T09:56:00.155Z,1.70
2022-09-12T09:57:03.965Z,1.77
2022-09-12T09:58:06.883Z,1.77
2022-09-12T09:59:27.391Z,1.80
2022-09-12T10:00:36.745Z,2.78
2022-09-12T10:02:03.608Z,1.83
2022-09-12T10:03:13.401Z,2.50
2022-09-12T10:04:29.654Z,2.10
2022-09-12T10:05:44.580Z,1.35
2022-09-12T10:06:50.708Z,1.80
2022-09-12T10:07:53.661Z,2.40
2022-09-12T10:09:09.074Z,2.00
2022-09-12T10:10:18.664Z,1.60
2022-09-12T10:11:26.941Z,1.65
2022-09-12T10:12:30.183Z,1.77
2022-09-12T10:13:53.003Z,1.75
2022-09-12T10:15:01.443Z,2.17
2022-09-12T10:16:18.953Z,2.30
2022-09-12T10:17:39.391Z,1.67
2022-09-12T10:18:43.651Z,2.08
2022-09-12T10:19:52.710Z,1.42
2022-09-12T10:21:46.021Z,1.98
2022-09-12T10:22:49.723Z,1.70
2022-09-12T10:24:01.454Z,1.85
2022-09-12T10:25:12.463Z,1.92
2022-09-12T10:26:19.629Z,2.10
2022-09-12T10:27:34.226Z,2.03
2022-09-12T10:28:56.655Z,2.08
2022-09-12T10:30:17.860Z,1.50
2022-09-12T10:31:36.102Z,1.80
2022-09-12T10:32:46.486Z,1.48
2022-09-12T10:33:53.035Z,1.85
2022-09-12T10:35:09.248Z,1.58
2022-09-12T10:36:12.336Z,1.35
2022-09-12T10:37:30.967Z,2.20
2022-09-12T10:38:34.506Z,1.80
2022-09-12T10:39:39.340Z,2.03
2022-09-12T10:40:44.194Z,2.00
2022-09-12T10:41:47.451Z,1.70
2022-09-12T10:43:00.092Z,2.08
2022-09-12T10:44:26.252Z,1.58
2022-09-12T10:45:35.792Z,1.92
2022-09-12T10:46:40.391Z,1.75
2022-09-12T10:47:43.321Z,1.83
2022-09-12T10:48:48.485Z,1.88
2022-09-12T10:49:51.358Z,1.88
2022-09-12T10:50:54.267Z,1.58
2022-09-12T10:52:17.460Z,1.60
2022-09-12T10:53:34.639Z,1.73
2022-09-12T10:54:38.109Z,1.77
2022-09-12T10:56:10.615Z,1.67
2022-09-12T10:57:41.985Z,1.42
2022-09-12T10:59:09.111Z,1.42
2022-09-12T11:00:18.166Z,1.52
2022-09-12T11:01:37.035Z,1.80
2022-09-12T11:02:57.559Z,1.60
2022-09-12T11:04:38.161Z,1.95
2022-09-12T11:05:56.552Z,1.60
2022-09-12T11:07:29.679Z,1.70
2022-09-12T11:08:38.357Z,1.55
2022-09-12T11:10:05.679Z,2.00
2022-09-12T11:11:35.593Z,1.20
2022-09-12T11:13:10.579Z,1.70
2022-09-12T11:14:45.335Z,1.50
2022-09-12T11:16:13.261Z,1.73
2022-09-12T11:17:35.895Z,1.75
2022-09-12T11:19:09.823Z,1.85
2022-09-12T11:20:41.925Z,1.38
2022-09-12T11:22:19.097Z,1.80
2022-09-12T11:24:05.780Z,1.75
2022-09-12T11:25:32.303Z,1.95
2022-09-12T11:27:28.330Z,1.65
2022-09-12T11:29:02.421Z,1.48
2022-09-12T11:30:16.477Z,2.00
2022-09-12T11:32:19.165Z,1.52
2022-09-12T11:33:56.536Z,1.80
2022-09-12T11:35:24.515Z,1.95
2022-09-12T11:36:34.297Z,1.60
2022-09-12T11:38:12.636Z,1.70
2022-09-12T11:39:26.990Z,1.75
2022-09-12T11:40:50.245Z,1.88
2022-09-12T11:42:00.249Z,1.70
2022-09-12T11:43:29.007Z,1.80
2022-09-12T11:44:46.384Z,1.38
2022-09-12T11:45:50.197Z,1.60
2022-09-12T11:46:53.169Z,3.03
2022-09-12T11:48:01.084Z,2.00
2022-09-12T11:49:10.180Z,1.80
2022-09-12T11:50:31.844Z,1.90
2022-09-12T11:51:46.391Z,1.42
2022-09-12T11:52:51.308Z,1.65
2022-09-12T11:54:13.083Z,1.70
2022-09-12T11:55:28.158Z,1.70
2022-09-12T11:56:31.412Z,1.42
2022-09-12T11:57:55.029Z,1.20
2022-09-12T11:59:09.390Z,2.00
2022-09-12T12:00:47.089Z,1.70
2022-09-12T12:01:56.427Z,1.67
2022-09-12T12:03:22.959Z,1.90
2022-09-12T12:04:39.657Z,1.73
2022-09-12T12:05:56.044Z,1.80
2022-09-12T12:07:07.817Z,1.77
2022-09-12T12:08:12.266Z,1.52
2022-09-12T12:09:15.592Z,1.48
2022-09-12T12:10:36.459Z,1.95
2022-09-12T12:12:47.608Z,1.63
2022-09-12T12:14:06.176Z,1.48
2022-09-12T12:15:16.844Z,1.50
2022-09-12T12:17:42.719Z,1.60
2022-09-12T12:18:46.526Z,1.55
2022-09-12T12:20:06.481Z,1.60
2022-09-12T12:21:42.352Z,1.55
2022-09-12T12:22:54.048Z,1.88
2022-09-12T12:24:09.112Z,1.70
2022-09-12T12:25:18.411Z,1.40
2022-09-12T12:26:39.039Z,1.73
2022-09-12T12:27:47.920Z,1.50
2022-09-12T12:28:51.204Z,1.50
2022-09-12T12:29:54.214Z,1.73
2022-09-12T12:30:56.921Z,1.88
2022-09-12T12:31:59.633Z,1.40
2022-09-12T12:33:13.204Z,1.52
2022-09-12T12:34:33.240Z,1.52
2022-09-12T12:35:36.550Z,1.75
2022-09-12T12:36:42.029Z,1.98
2022-09-12T12:37:52.738Z,1.40
2022-09-12T12:40:21.009Z,1.80
2022-09-12T12:41:24.220Z,1.55
2022-09-12T12:42:33.530Z,1.50
2022-09-12T12:43:36.591Z,1.60
2022-09-12T12:44:45.547Z,1.60
2022-09-12T12:45:58.924Z,1.45
2022-09-12T12:47:25.731Z,1.67
2022-09-12T12:48:31.756Z,1.63
2022-09-12T12:49:34.909Z,1.50
2022-09-12T12:50:37.917Z,1.30
2022-09-12T12:52:01.274Z,1.50
2022-09-12T12:53:27.847Z,1.80
2022-09-12T12:54:45.398Z,1.35
2022-09-12T12:55:52.942Z,1.70
2022-09-12T12:57:27.187Z,1.65
2022-09-12T12:58:38.769Z,1.80
2022-09-12T12:59:56.225Z,1.70
2022-09-12T13:01:19.078Z,1.60
2022-09-12T13:02:32.248Z,1.58
2022-09-12T13:03:36.670Z,1.48
2022-09-12T13:04:45.861Z,1.45
2022-09-12T13:05:57.529Z,1.60
2022-09-12T13:07:08.378Z,1.15
2022-09-12T13:08:31.735Z,1.58
2022-09-12T13:09:37.916Z,1.40
2022-09-12T13:11:00.428Z,1.73
2022-09-12T13:12:12.471Z,1.63
2022-09-12T13:13:40.687Z,1.60
2022-09-12T13:14:43.559Z,1.60
2022-09-12T13:15:52.316Z,2.08
2022-09-12T13:17:01.402Z,1.17
2022-09-12T13:18:30.213Z,1.48
2022-09-12T13:19:37.211Z,1.33
2022-09-12T13:21:07.876Z,1.48
2022-09-12T13:22:11.333Z,1.33
2022-09-12T13:23:29.123Z,1.60
2022-09-12T13:24:32.523Z,1.52
2022-09-12T13:25:37.133Z,1.52
2022-09-12T13:26:47.543Z,1.63
2022-09-12T13:28:09.456Z,1.25
2022-09-12T13:29:22.855Z,1.40
2022-09-12T13:30:27.142Z,1.02
2022-09-12T13:31:30.718Z,1.50
2022-09-12T13:32:34.050Z,1.60
2022-09-12T13:33:48.631Z,1.70
2022-09-12T13:35:22.259Z,1.13
2022-09-12T13:37:04.986Z,1.40
2022-09-12T13:38:30.763Z,1.40
2022-09-12T13:40:05.495Z,1.50
2022-09-12T13:41:26.818Z,1.70
2022-09-12T13:42:42.734Z,1.58
2022-09-12T13:43:47.949Z,1.63
2022-09-12T13:45:18.277Z,1.27
2022-09-12T13:46:41.760Z,1.40
2022-09-12T13:47:48.697Z,1.27
2022-09-12T13:48:51.753Z,1.63
2022-09-12T13:49:56.617Z,1.52
2022-09-12T13:51:02.715Z,1.63
2022-09-12T13:52:20.784Z,1.33
2022-09-12T13:53:32.686Z,1.10
2022-09-12T13:54:38.989Z,1.40
2022-09-12T13:55:47.650Z,1.70
2022-09-12T13:56:50.568Z,1.33
2022-09-12T13:58:19.901Z,1.52
2022-09-12T13:59:23.171Z,1.05
2022-09-12T14:00:28.298Z,1.45
2022-09-12T14:01:42.907Z,1.38
2022-09-12T14:02:48.011Z,1.83
2022-09-12T14:04:14.831Z,1.50
2022-09-12T14:05:25.559Z,1.45
2022-09-12T14:06:28.850Z,1.38
2022-09-12T14:07:32.697Z,1.70
2022-09-12T14:08:41.650Z,1.88
2022-09-12T14:09:52.508Z,1.33
2022-09-12T14:10:56.471Z,1.45
2022-09-12T14:11:59.647Z,1.67
2022-09-12T14:13:14.023Z,1.40
2022-09-12T14:14:43.853Z,1.30
2022-09-12T14:15:50.382Z,1.05
2022-09-12T14:16:54.812Z,1.40
2022-09-12T14:18:04.399Z,1.55
2022-09-12T14:19:10.248Z,1.83
2022-09-12T14:20:16.592Z,1.85
2022-09-12T14:21:36.490Z,1.42
2022-09-12T14:22:41.638Z,1.42
2022-09-12T14:23:48.789Z,1.38
2022-09-12T14:24:51.902Z,0.98
2022-09-12T14:25:56.910Z,1.63
2022-09-12T14:27:00.208Z,1.45
2022-09-12T14:28:03.740Z,1.25
2022-09-12T14:29:07.659Z,1.63
2022-09-12T14:30:37.848Z,1.63
2022-09-12T14:31:41.357Z,1.45
2022-09-12T14:33:01.665Z,1.58
2022-09-12T14:34:19.572Z,1.02
2022-09-12T14:35:24.180Z,1.35
2022-09-12T14:36:43.470Z,1.45
2022-09-12T14:37:50.257Z,1.27
2022-09-12T14:39:06.703Z,1.25
2022-09-12T14:40:24.067Z,1.42
2022-09-12T14:41:38.269Z,1.23
2022-09-12T14:42:42.603Z,1.30
2022-09-12T14:43:51.295Z,1.30
2022-09-12T14:45:16.701Z,1.38
2022-09-12T14:46:35.356Z,1.35
2022-09-12T14:47:44.613Z,1.65
2022-09-12T14:48:57.789Z,1.65
2022-09-12T14:50:00.656Z,1.40
2022-09-12T14:51:05.275Z,1.00
2022-09-12T14:52:24.676Z,1.33
2022-09-12T14:53:37.598Z,1.48
2022-09-12T14:54:42.823Z,1.40
2022-09-12T14:56:12.590Z,0.98
2022-09-12T14:57:39.186Z,1.35
2022-09-12T14:58:43.258Z,1.13
2022-09-12T14:59:46.350Z,1.35
2022-09-12T15:00:58.147Z,1.30
2022-09-12T15:02:21.396Z,1.23
2022-09-12T15:03:30.775Z,1.30
2022-09-12T15:05:08.798Z,1.27
2022-09-12T15:06:36.592Z,1.40
2022-09-12T15:07:50.994Z,1.42
2022-09-12T15:08:55.902Z,1.50
2022-09-12T15:10:01.858Z,1.30
2022-09-12T15:11:07.603Z,1.33
2022-09-12T15:12:11.254Z,1.33
2022-09-12T15:13:21.806Z,1.27
2022-09-12T15:14:24.975Z,1.40
2022-09-12T15:15:27.801Z,1.50
2022-09-12T15:16:30.583Z,1.52
2022-09-12T15:17:33.372Z,2.33
2022-09-12T15:18:36.522Z,3.75
2022-09-12T15:19:39.488Z,2.95
2022-09-12T15:20:46.040Z,2.20
2022-09-12T15:21:48.979Z,2.28
2022-09-12T15:22:52.606Z,2.30
2022-09-12T15:23:55.552Z,1.95
2022-09-12T15:24:58.482Z,2.00
2022-09-12T15:26:01.841Z,1.70
2022-09-12T15:27:12.163Z,2.17
2022-09-12T15:28:24.010Z,1.98
2022-09-12T15:29:26.910Z,1.70
2022-09-12T15:30:30.006Z,1.73
2022-09-12T15:31:33.284Z,1.63
2022-09-12T15:32:37.283Z,1.80
2022-09-12T15:33:40.119Z,1.58
2022-09-12T15:34:42.949Z,1.60
2022-09-12T15:35:46.201Z,1.45
2022-09-12T15:36:49.190Z,1.52
2022-09-12T15:37:52.482Z,1.70
2022-09-12T15:38:56.234Z,1.90
2022-09-12T15:39:59.275Z,1.67
2022-09-12T15:41:02.361Z,1.75
2022-09-12T15:42:05.299Z,1.48
2022-09-12T15:43:08.291Z,1.63
2022-09-12T15:44:14.525Z,1.63
2022-09-12T15:45:26.323Z,1.77
2022-09-12T15:46:29.327Z,1.70
2022-09-12T15:47:32.236Z,1.65
2022-09-12T15:48:35.203Z,1.80
2022-09-12T15:49:38.248Z,1.67
2022-09-12T15:50:42.306Z,1.73